Time;durP1;ratioP1;P1;durP2;ratioP2;P2;SDS_P1;SDS_P2;PMS_P1;PMS_P2;Temp;Humidity;BMP_temperature;BMP_pressure;BME280_temperature;BME280_humidity;BME280_pressure;Samples;Min_cycle;Max_cycle;Signal;HPM_P1;HPM_P2
2022/03/11 00:00:08;;;;;;;25.37;22.90;;;5.60;68.60;;;;;;4974322;28;20470;-74
2022/03/11 00:02:37;;;;;;;25.80;22.93;;;5.60;67.90;;;;;;5007981;28;20561;-73
2022/03/11 00:05:05;;;;;;;25.80;23.23;;;5.50;67.90;;;;;;4997559;28;20462;-72
2022/03/11 00:07:32;;;;;;;33.90;24.00;;;5.50;68.10;;;;;;4995104;28;20523;-73
2022/03/11 00:09:59;;;;;;;25.47;22.80;;;5.50;68.10;;;;;;5003715;28;20462;-72
2022/03/11 00:12:26;;;;;;;26.60;22.80;;;5.60;69.30;;;;;;5001587;28;20461;-73
2022/03/11 00:14:53;;;;;;;34.73;23.30;;;5.60;67.90;;;;;;5004779;28;20497;-73
2022/03/11 00:17:20;;;;;;;25.60;23.07;;;5.50;67.90;;;;;;5007844;28;20460;-73
2022/03/11 00:19:49;;;;;;;25.83;22.97;;;5.40;68.40;;;;;;5002644;28;20472;-73
2022/03/11 00:22:16;;;;;;;25.57;22.87;;;5.50;69.40;;;;;;4999851;28;21017;-74
2022/03/11 00:24:43;;;;;;;26.80;23.13;;;5.40;69.00;;;;;;5002904;28;21297;-72
2022/03/11 00:27:11;;;;;;;26.43;23.60;;;5.40;68.70;;;;;;5005635;28;20478;-72
2022/03/11 00:29:38;;;;;;;30.73;23.20;;;5.30;68.80;;;;;;5005647;28;20493;-73
2022/03/11 00:32:05;;;;;;;30.20;23.43;;;5.40;69.00;;;;;;5001942;28;20573;-74
2022/03/11 00:34:32;;;;;;;29.83;23.13;;;5.40;68.80;;;;;;5001936;28;20495;-74
2022/03/11 00:37:00;;;;;;;31.47;23.67;;;5.30;68.70;;;;;;5008916;28;20474;-74
2022/03/11 00:39:27;;;;;;;26.27;23.40;;;5.30;69.00;;;;;;5002796;28;20543;-74
2022/03/11 00:41:55;;;;;;;32.90;24.03;;;5.40;69.30;;;;;;5000152;28;20821;-74
2022/03/11 00:44:22;;;;;;;27.50;24.77;;;5.40;68.90;;;;;;4996479;28;20550;-74
2022/03/11 00:46:49;;;;;;;27.13;24.07;;;5.40;68.40;;;;;;5006290;28;20476;-74
2022/03/11 00:49:15;;;;;;;27.97;23.13;;;5.40;68.60;;;;;;5002720;28;20845;-71
2022/03/11 00:51:42;;;;;;;25.30;22.80;;;5.40;68.20;;;;;;5003727;28;20471;-73
2022/03/11 00:54:10;;;;;;;39.80;25.10;;;5.50;67.30;;;;;;5003004;28;20866;-73
2022/03/11 00:56:37;;;;;;;32.63;23.50;;;5.50;67.20;;;;;;4993803;28;20470;-73
2022/03/11 00:59:06;;;;;;;25.40;22.23;;;5.70;66.30;;;;;;5005363;28;21127;-72
2022/03/11 01:01:33;;;;;;;25.33;22.70;;;5.80;66.10;;;;;;4999195;28;20462;-73
2022/03/11 01:03:59;;;;;;;24.87;22.30;;;5.90;65.50;;;;;;5004682;28;20482;-74
2022/03/11 01:06:27;;;;;;;24.13;21.83;;;5.80;65.60;;;;;;4997945;28;20477;-73
2022/03/11 01:08:54;;;;;;;25.37;22.67;;;5.90;65.80;;;;;;5002020;28;20471;-75
2022/03/11 01:11:22;;;;;;;26.43;23.30;;;5.90;65.60;;;;;;4997521;28;21181;-73
2022/03/11 01:13:49;;;;;;;28.47;22.63;;;5.90;65.70;;;;;;4991468;28;20483;-73
2022/03/11 01:16:15;;;;;;;26.63;23.67;;;6.00;65.00;;;;;;5013701;28;20474;-73
2022/03/11 01:18:42;;;;;;;24.20;22.13;;;6.00;64.70;;;;;;5002977;28;20461;-73
2022/03/11 01:21:11;;;;;;;25.17;22.53;;;6.00;64.40;;;;;;4996813;28;20520;-74
2022/03/11 01:23:38;;;;;;;24.17;22.20;;;6.00;64.40;;;;;;4999844;28;20846;-74
2022/03/11 01:26:04;;;;;;;23.53;21.03;;;6.00;64.00;;;;;;4998324;28;20462;-74
2022/03/11 01:28:32;;;;;;;26.90;22.40;;;6.00;64.50;;;;;;5003393;28;20486;-74
2022/03/11 01:30:59;;;;;;;24.90;22.40;;;6.00;64.30;;;;;;5006075;28;20480;-72
2022/03/11 01:33:26;;;;;;;24.10;22.13;;;6.20;62.60;;;;;;4996809;28;20523;-75
2022/03/11 01:35:53;;;;;;;26.17;21.60;;;6.20;62.30;;;;;;4998677;28;20564;-73
2022/03/11 01:38:20;;;;;;;33.37;22.93;;;6.20;61.90;;;;;;4995854;28;20577;-74
2022/03/11 01:40:47;;;;;;;23.90;21.73;;;6.20;61.70;;;;;;4998599;28;20475;-72
2022/03/11 01:43:15;;;;;;;28.03;21.73;;;6.20;62.20;;;;;;4996730;28;20486;-72
2022/03/11 01:45:44;;;;;;;28.53;21.63;;;6.30;60.60;;;;;;4994868;28;20501;-73
2022/03/11 01:48:11;;;;;;;25.00;22.67;;;6.30;61.00;;;;;;5001018;28;20471;-72
2022/03/11 01:50:40;;;;;;;23.23;20.80;;;6.30;60.80;;;;;;5001249;28;20968;-72
2022/03/11 01:53:09;;;;;;;25.43;22.07;;;6.40;60.30;;;;;;4995934;28;20467;-72
2022/03/11 01:55:36;;;;;;;26.23;23.50;;;6.40;59.80;;;;;;4999560;28;20462;-73
2022/03/11 01:58:04;;;;;;;28.07;23.27;;;6.40;60.30;;;;;;4998671;28;20959;-73
2022/03/11 02:00:31;;;;;;;26.33;23.57;;;6.30;61.20;;;;;;5001270;28;20481;-73
2022/03/11 02:02:59;;;;;;;30.77;23.77;;;6.30;60.50;;;;;;5004822;28;20462;-74
2022/03/11 02:05:26;;;;;;;37.13;22.23;;;6.10;62.30;;;;;;4992736;28;20495;-72
2022/03/11 02:07:54;;;;;;;25.60;22.50;;;5.90;62.20;;;;;;4998401;28;20733;-73
2022/03/11 02:10:21;;;;;;;26.37;23.43;;;5.80;63.60;;;;;;4995061;28;20451;-73
2022/03/11 02:12:48;;;;;;;30.77;23.33;;;5.70;63.70;;;;;;4999732;28;20472;-72
2022/03/11 02:15:30;;;;;;;35.27;22.57;;;5.60;64.40;;;;;;4999148;28;20992;-73
2022/03/11 02:17:58;;;;;;;37.27;22.13;;;5.60;64.70;;;;;;4995839;28;20469;-72
2022/03/11 02:20:25;;;;;;;28.80;22.90;;;5.60;64.60;;;;;;4995631;28;20465;-72
2022/03/11 02:22:53;;;;;;;30.73;23.50;;;5.60;64.20;;;;;;5002219;28;20474;-73
2022/03/11 02:25:22;;;;;;;28.30;22.30;;;5.60;63.40;;;;;;5003555;28;20521;-74
2022/03/11 02:27:48;;;;;;;36.73;22.50;;;5.70;63.60;;;;;;5000873;28;20492;-73
2022/03/11 02:30:17;;;;;;;38.17;23.10;;;5.70;62.70;;;;;;4997534;28;20567;-74
2022/03/11 02:32:45;;;;;;;35.27;22.40;;;5.70;62.60;;;;;;5004212;28;20466;-74
2022/03/11 02:35:13;;;;;;;45.20;23.03;;;5.70;63.30;;;;;;5003146;28;20462;-74
2022/03/11 02:37:40;;;;;;;31.53;21.60;;;5.60;63.90;;;;;;4995811;28;20482;-74
2022/03/11 02:40:09;;;;;;;30.27;21.23;;;5.60;64.10;;;;;;4997974;28;20473;-73
2022/03/11 02:42:37;;;;;;;32.00;21.27;;;5.60;63.30;;;;;;4998065;28;20558;-74
2022/03/11 02:45:06;;;;;;;34.37;22.40;;;5.50;63.90;;;;;;4999942;28;20497;-74
2022/03/11 02:47:33;;;;;;;25.93;23.27;;;5.50;64.30;;;;;;5000141;28;20463;-74
2022/03/11 02:50:01;;;;;;;26.73;22.30;;;5.40;64.80;;;;;;5000789;28;20471;-73
2022/03/11 02:52:29;;;;;;;24.10;22.17;;;5.40;65.20;;;;;;4996479;28;20466;-74
2022/03/11 02:54:57;;;;;;;25.73;21.80;;;5.30;65.90;;;;;;5002853;28;20469;-74
2022/03/11 02:57:23;;;;;;;27.27;22.47;;;5.20;66.50;;;;;;5004857;28;20911;-73
2022/03/11 02:59:52;;;;;;;24.53;22.23;;;5.20;67.20;;;;;;5001967;28;21087;-74
2022/03/11 03:02:19;;;;;;;24.70;21.80;;;5.20;67.60;;;;;;5005921;28;21075;-73
2022/03/11 03:04:45;;;;;;;32.63;25.70;;;5.10;68.10;;;;;;5003538;28;20493;-73
2022/03/11 03:07:13;;;;;;;25.57;21.17;;;5.10;68.60;;;;;;5006054;28;20467;-74
2022/03/11 03:09:41;;;;;;;24.17;21.97;;;5.00;68.80;;;;;;5006287;28;20462;-74
2022/03/11 03:12:10;;;;;;;23.50;21.50;;;5.00;69.20;;;;;;5001026;28;20526;-73
2022/03/11 03:14:37;;;;;;;24.40;22.00;;;5.00;69.50;;;;;;5006979;28;20549;-73
2022/03/11 03:17:06;;;;;;;24.53;22.50;;;5.10;69.50;;;;;;5006949;28;20463;-73
2022/03/11 03:19:32;;;;;;;23.67;21.67;;;5.10;69.80;;;;;;5010337;28;20473;-73
2022/03/11 03:21:59;;;;;;;24.83;22.53;;;5.00;69.90;;;;;;5002272;28;20480;-74
2022/03/11 03:24:26;;;;;;;27.87;22.80;;;5.10;70.00;;;;;;5007995;28;20480;-73
2022/03/11 03:26:55;;;;;;;23.60;21.60;;;5.10;70.20;;;;;;5005590;28;20473;-72
2022/03/11 03:29:22;;;;;;;23.30;21.20;;;5.10;70.20;;;;;;5006626;28;20485;-73
2022/03/11 03:31:48;;;;;;;23.53;21.43;;;5.10;70.60;;;;;;5012736;28;20562;-73
2022/03/11 03:34:17;;;;;;;28.50;21.10;;;5.00;70.90;;;;;;5008451;28;20478;-73
2022/03/11 03:36:44;;;;;;;22.63;20.93;;;5.00;71.60;;;;;;5005186;28;20857;-73
2022/03/11 03:39:10;;;;;;;25.47;22.97;;;4.90;72.10;;;;;;5002433;28;20466;-72
2022/03/11 03:41:37;;;;;;;24.80;22.20;;;4.80;72.20;;;;;;5008405;28;20463;-73
2022/03/11 03:44:04;;;;;;;23.07;21.23;;;4.70;73.00;;;;;;5005795;28;20458;-73
2022/03/11 03:46:32;;;;;;;25.20;22.67;;;4.70;73.30;;;;;;5008894;28;20493;-73
2022/03/11 03:49:00;;;;;;;25.97;23.37;;;4.70;73.60;;;;;;5002331;28;20461;-72
2022/03/11 03:51:28;;;;;;;27.60;23.03;;;4.70;74.10;;;;;;5004735;28;20465;-73
2022/03/11 03:53:55;;;;;;;27.73;22.70;;;4.70;74.20;;;;;;5005254;28;20478;-73
2022/03/11 03:56:21;;;;;;;34.50;22.67;;;4.80;73.90;;;;;;5005358;28;20462;-73
2022/03/11 03:58:48;;;;;;;31.97;23.27;;;4.70;74.50;;;;;;5008957;28;20474;-73
2022/03/11 04:01:18;;;;;;;43.13;23.50;;;4.60;75.00;;;;;;5012417;28;20476;-74
2022/03/11 04:03:45;;;;;;;55.93;24.17;;;4.50;75.50;;;;;;5009086;28;20512;-72
2022/03/11 04:06:12;;;;;;;81.23;28.37;;;4.50;75.50;;;;;;5002353;28;20996;-73
2022/03/11 04:08:40;;;;;;;74.57;27.53;;;4.50;75.70;;;;;;5004696;28;20458;-72
2022/03/11 04:11:07;;;;;;;62.53;27.07;;;4.40;75.80;;;;;;5004034;28;20494;-72
2022/03/11 04:13:36;;;;;;;59.57;26.47;;;4.50;76.40;;;;;;5002531;28;20472;-72
2022/03/11 04:16:02;;;;;;;78.37;26.07;;;4.50;76.20;;;;;;5006030;28;20469;-73
2022/03/11 04:18:29;;;;;;;36.77;23.70;;;4.60;76.10;;;;;;5005056;28;20569;-73
2022/03/11 04:20:58;;;;;;;32.10;22.50;;;4.70;76.10;;;;;;5005242;28;20473;-73
2022/03/11 04:23:25;;;;;;;50.83;25.33;;;4.70;76.10;;;;;;5004820;28;20523;-74
2022/03/11 04:25:54;;;;;;;52.03;25.07;;;4.70;76.40;;;;;;5007791;28;20584;-74
2022/03/11 04:28:21;;;;;;;61.07;24.37;;;4.60;76.50;;;;;;5000401;28;20478;-73
2022/03/11 04:30:48;;;;;;;48.63;24.67;;;4.60;76.90;;;;;;4998031;28;20458;-74
2022/03/11 04:33:15;;;;;;;35.30;24.70;;;4.70;76.80;;;;;;4997897;28;20843;-74
2022/03/11 04:35:42;;;;;;;44.00;23.43;;;4.80;76.70;;;;;;5002186;28;20472;-74
2022/03/11 04:38:10;;;;;;;26.40;23.37;;;4.90;76.30;;;;;;5005339;28;20488;-74
2022/03/11 04:40:37;;;;;;;29.27;24.27;;;4.90;76.40;;;;;;4998540;28;20508;-72
2022/03/11 04:43:05;;;;;;;28.23;23.47;;;5.00;76.30;;;;;;4998715;28;20474;-73
2022/03/11 04:45:32;;;;;;;25.83;23.30;;;5.00;76.30;;;;;;5002869;28;20497;-74
2022/03/11 04:47:59;;;;;;;27.63;24.50;;;5.00;76.00;;;;;;5001104;28;20471;-74
2022/03/11 04:50:26;;;;;;;66.13;24.60;;;5.00;76.50;;;;;;5007055;28;20934;-74
2022/03/11 04:52:52;;;;;;;26.10;23.47;;;4.90;76.60;;;;;;5003744;28;20458;-72
2022/03/11 04:55:20;;;;;;;36.27;25.50;;;4.90;76.80;;;;;;5003114;28;20496;-73
2022/03/11 04:57:46;;;;;;;27.70;25.03;;;4.90;77.10;;;;;;5002006;28;20969;-72
2022/03/11 05:00:16;;;;;;;27.17;24.37;;;4.90;77.40;;;;;;5001460;28;20470;-73
2022/03/11 05:02:44;;;;;;;27.83;25.00;;;4.80;77.40;;;;;;4983018;28;20474;-74
2022/03/11 05:05:13;;;;;;;31.43;25.40;;;4.90;77.70;;;;;;4971276;28;20505;-74
2022/03/11 05:07:40;;;;;;;26.67;23.87;;;4.90;77.90;;;;;;4971764;28;20489;-74
2022/03/11 05:10:08;;;;;;;27.83;24.03;;;4.80;78.10;;;;;;4972972;28;20473;-73
2022/03/11 05:12:35;;;;;;;26.70;23.80;;;4.90;77.80;;;;;;4986691;28;21000;-73
2022/03/11 05:15:04;;;;;;;42.60;26.30;;;4.90;77.70;;;;;;5004204;28;20508;-73
2022/03/11 05:17:32;;;;;;;34.30;25.30;;;4.90;78.00;;;;;;4977645;28;20463;-73
2022/03/11 05:19:59;;;;;;;28.97;24.60;;;4.80;78.30;;;;;;4971034;28;20479;-74
2022/03/11 05:22:26;;;;;;;35.13;24.53;;;4.80;78.50;;;;;;4973128;28;20474;-72
2022/03/11 05:24:53;;;;;;;28.40;25.60;;;4.80;78.60;;;;;;4973395;28;20475;-73
2022/03/11 05:27:20;;;;;;;30.83;25.20;;;4.80;78.70;;;;;;4972459;28;21227;-72
2022/03/11 05:29:47;;;;;;;29.90;25.53;;;4.80;79.10;;;;;;4971753;28;21063;-72
2022/03/11 05:32:15;;;;;;;27.67;24.87;;;4.80;79.10;;;;;;4972978;28;20462;-74
2022/03/11 05:34:44;;;;;;;32.63;26.00;;;4.80;79.20;;;;;;4972070;28;20476;-72
2022/03/11 05:37:11;;;;;;;28.47;25.57;;;4.80;79.10;;;;;;4972293;28;20495;-74
2022/03/11 05:39:38;;;;;;;26.87;24.10;;;4.80;79.10;;;;;;4972311;28;20591;-73
2022/03/11 05:42:06;;;;;;;28.90;25.47;;;4.80;79.10;;;;;;4972332;28;21315;-74
2022/03/11 05:44:33;;;;;;;34.03;27.20;;;4.80;79.10;;;;;;4972442;28;20462;-74
2022/03/11 05:47:01;;;;;;;29.07;25.87;;;4.70;79.30;;;;;;4973346;28;21091;-74
2022/03/11 05:49:28;;;;;;;31.73;24.73;;;4.80;79.60;;;;;;4971321;28;20815;-74
2022/03/11 05:51:59;;;;;;;30.90;24.80;;;4.70;79.30;;;;;;4971724;28;20961;-73
2022/03/11 05:54:26;;;;;;;32.27;25.30;;;4.70;79.70;;;;;;4972549;28;20486;-73
2022/03/11 05:56:54;;;;;;;41.33;25.40;;;4.70;79.90;;;;;;4971920;28;20545;-74
2022/03/11 05:59:21;;;;;;;33.87;26.40;;;4.70;80.00;;;;;;4972584;28;20981;-74
2022/03/11 06:01:48;;;;;;;38.77;25.37;;;4.70;80.30;;;;;;4973472;28;20825;-73
2022/03/11 06:04:15;;;;;;;31.80;25.70;;;4.60;80.50;;;;;;4970174;28;20769;-73
2022/03/11 06:06:42;;;;;;;38.43;24.80;;;4.60;80.70;;;;;;4969917;28;20526;-73
2022/03/11 06:09:11;;;;;;;28.30;24.73;;;4.60;81.10;;;;;;4970001;28;20471;-73
2022/03/11 06:11:39;;;;;;;33.67;24.30;;;4.60;81.60;;;;;;4970780;28;20880;-74
2022/03/11 06:14:06;;;;;;;33.43;25.47;;;4.60;81.90;;;;;;4971050;28;20922;-73
2022/03/11 06:16:34;;;;;;;31.17;25.93;;;4.60;81.70;;;;;;4971402;28;20466;-73
2022/03/11 06:19:01;;;;;;;32.87;26.30;;;4.60;81.90;;;;;;4970898;28;21030;-73
2022/03/11 06:21:29;;;;;;;29.60;26.63;;;4.60;82.10;;;;;;4970734;28;20510;-72
2022/03/11 06:23:56;;;;;;;32.73;26.67;;;4.60;82.70;;;;;;4970492;28;21098;-72
2022/03/11 06:26:24;;;;;;;33.87;26.60;;;4.60;82.90;;;;;;4969510;28;20498;-73
2022/03/11 06:28:51;;;;;;;29.37;26.13;;;4.60;82.90;;;;;;4969612;28;20703;-73
2022/03/11 06:31:18;;;;;;;31.30;25.37;;;4.70;83.30;;;;;;4969951;28;20482;-72
2022/03/11 06:33:44;;;;;;;29.03;26.20;;;4.70;83.70;;;;;;4969177;28;20470;-72
2022/03/11 06:36:11;;;;;;;31.60;25.27;;;4.70;83.90;;;;;;4970639;28;20460;-72
2022/03/11 06:38:38;;;;;;;33.43;26.63;;;4.70;84.20;;;;;;4969994;28;20461;-73
2022/03/11 06:41:05;;;;;;;31.87;24.30;;;4.80;84.20;;;;;;4971376;28;20463;-73
2022/03/11 06:43:34;;;;;;;27.10;24.30;;;4.90;84.30;;;;;;4969518;28;20467;-73
2022/03/11 06:46:01;;;;;;;39.03;27.30;;;4.90;83.80;;;;;;4971471;28;20521;-72
2022/03/11 06:48:27;;;;;;;30.83;27.63;;;5.00;83.60;;;;;;4971409;28;20462;-73
2022/03/11 06:50:54;;;;;;;41.90;27.07;;;5.10;83.40;;;;;;4966970;28;20840;-73
2022/03/11 06:53:25;;;;;;;39.30;27.87;;;5.10;84.00;;;;;;4970163;28;20469;-72
2022/03/11 06:55:52;;;;;;;40.90;27.63;;;5.20;83.10;;;;;;4968601;28;20581;-73
2022/03/11 06:58:19;;;;;;;45.57;27.73;;;5.20;82.40;;;;;;4969332;28;20494;-72
2022/03/11 07:00:47;;;;;;;41.47;26.07;;;5.30;82.30;;;;;;4969196;28;21033;-73
2022/03/11 07:03:14;;;;;;;42.33;27.80;;;5.40;81.70;;;;;;4969707;28;20482;-73
2022/03/11 07:05:41;;;;;;;41.03;27.70;;;5.50;81.80;;;;;;4967963;28;20502;-72
2022/03/11 07:08:10;;;;;;;52.27;28.10;;;5.50;81.50;;;;;;4981447;28;20768;-73
2022/03/11 07:10:37;;;;;;;66.97;30.73;;;5.50;81.40;;;;;;4994197;28;20458;-72
2022/03/11 07:13:04;;;;;;;67.70;29.50;;;5.70;81.20;;;;;;4977343;28;20463;-73
2022/03/11 07:15:31;;;;;;;68.40;29.13;;;5.80;80.70;;;;;;4969109;28;20860;-74
2022/03/11 07:17:59;;;;;;;61.77;30.83;;;5.80;80.70;;;;;;4968236;28;20451;-72
2022/03/11 07:20:26;;;;;;;54.37;30.70;;;5.90;80.70;;;;;;4966966;28;20629;-72
2022/03/11 07:22:53;;;;;;;64.77;29.90;;;6.00;81.00;;;;;;4970445;28;20467;-74
2022/03/11 07:25:20;;;;;;;59.83;31.60;;;6.00;81.40;;;;;;4968359;28;21882;-74
2022/03/11 07:27:48;;;;;;;60.40;30.80;;;6.10;80.80;;;;;;4957416;28;21555;-74
2022/03/11 07:30:15;;;;;;;95.83;30.60;;;6.20;81.30;;;;;;4960742;28;20467;-74
2022/03/11 07:32:42;;;;;;;64.97;31.80;;;6.20;80.40;;;;;;4963424;28;20836;-73
2022/03/11 07:35:12;;;;;;;60.27;31.10;;;6.30;80.00;;;;;;4963628;28;20466;-73
2022/03/11 07:37:40;;;;;;;74.57;32.87;;;6.40;79.80;;;;;;4963534;28;20581;-72
2022/03/11 07:40:08;;;;;;;70.13;32.23;;;6.50;79.20;;;;;;4965073;28;20617;-74
2022/03/11 07:42:35;;;;;;;75.23;34.00;;;6.60;79.70;;;;;;4966054;28;20564;-72
2022/03/11 07:45:02;;;;;;;64.70;31.97;;;6.70;79.60;;;;;;4965783;28;22583;-73
2022/03/11 07:47:29;;;;;;;67.50;32.00;;;6.90;79.40;;;;;;4965496;28;20507;-73
2022/03/11 07:49:56;;;;;;;64.93;31.13;;;6.90;79.30;;;;;;4966106;28;20473;-72
2022/03/11 07:52:25;;;;;;;42.47;30.00;;;7.00;78.20;;;;;;4968543;28;21049;-75
2022/03/11 07:54:51;;;;;;;72.93;31.50;;;7.00;77.50;;;;;;4968930;28;21281;-72
2022/03/11 07:57:18;;;;;;;45.53;31.87;;;7.10;79.10;;;;;;4969325;28;20967;-73
2022/03/11 07:59:45;;;;;;;65.73;30.93;;;7.20;79.50;;;;;;4969077;28;20479;-73
2022/03/11 08:02:12;;;;;;;56.83;32.70;;;7.20;76.80;;;;;;4968783;28;20497;-73
2022/03/11 08:04:39;;;;;;;53.77;33.20;;;7.20;76.60;;;;;;4969702;28;20472;-71
2022/03/11 08:07:09;;;;;;;58.33;31.80;;;7.30;76.50;;;;;;4968030;28;20509;-72
2022/03/11 08:09:39;;;;;;;51.23;30.20;;;7.30;76.40;;;;;;4970526;28;20492;-74
2022/03/11 08:12:06;;;;;;;68.63;29.13;;;7.40;76.30;;;;;;4968784;28;21304;-74
2022/03/11 08:14:33;;;;;;;66.40;31.53;;;7.40;75.90;;;;;;4968178;28;20465;-73
2022/03/11 08:17:00;;;;;;;47.37;29.60;;;7.50;75.20;;;;;;4967727;28;21484;-75
2022/03/11 08:19:27;;;;;;;56.97;30.87;;;7.50;76.30;;;;;;4969044;28;20920;-74
2022/03/11 08:21:54;;;;;;;67.13;33.30;;;7.60;75.00;;;;;;4969992;28;20464;-74
2022/03/11 08:24:21;;;;;;;41.83;29.67;;;7.70;75.50;;;;;;4968920;28;20465;-74
2022/03/11 08:26:50;;;;;;;58.13;32.40;;;7.70;74.90;;;;;;4969298;28;20489;-73
2022/03/11 08:29:19;;;;;;;91.13;32.20;;;7.60;74.40;;;;;;4968665;28;20501;-73
2022/03/11 08:31:46;;;;;;;95.93;33.80;;;7.60;75.80;;;;;;4968930;28;21932;-74
2022/03/11 08:34:13;;;;;;;109.17;36.33;;;7.80;74.50;;;;;;4966836;28;20600;-73
2022/03/11 08:36:40;;;;;;;116.73;34.73;;;7.80;74.30;;;;;;4968109;28;20497;-73
2022/03/11 08:39:07;;;;;;;146.07;35.53;;;7.90;74.40;;;;;;4968360;28;20577;-74
2022/03/11 08:41:34;;;;;;;119.50;35.43;;;7.90;74.10;;;;;;4969058;28;20744;-74
2022/03/11 08:44:05;;;;;;;69.13;33.67;;;7.90;73.30;;;;;;4968934;28;20842;-73
2022/03/11 08:46:32;;;;;;;39.67;28.77;;;8.20;74.40;;;;;;4969285;28;20923;-74
2022/03/11 08:48:59;;;;;;;72.27;32.07;;;8.10;72.40;;;;;;4969171;28;20676;-75
2022/03/11 08:51:26;;;;;;;100.13;37.03;;;8.10;72.50;;;;;;4968507;28;20474;-74
2022/03/11 08:53:53;;;;;;;56.97;30.37;;;8.20;72.30;;;;;;4967726;28;20471;-73
2022/03/11 08:56:21;;;;;;;80.33;35.37;;;8.30;72.30;;;;;;4966158;28;20462;-73
2022/03/11 08:58:49;;;;;;;54.60;31.40;;;8.50;73.50;;;;;;4967449;28;20504;-73
2022/03/11 09:01:17;;;;;;;64.47;30.57;;;8.60;72.70;;;;;;4968118;28;20463;-73
2022/03/11 09:03:44;;;;;;;88.47;35.57;;;8.80;71.80;;;;;;4966600;28;20517;-73
2022/03/11 09:06:11;;;;;;;57.13;31.97;;;8.70;71.80;;;;;;4968237;28;20474;-75
2022/03/11 09:08:38;;;;;;;36.23;29.57;;;8.90;71.60;;;;;;4967670;28;20492;-75
2022/03/11 09:11:05;;;;;;;48.93;31.20;;;9.10;72.10;;;;;;4967337;28;20819;-76
2022/03/11 09:13:32;;;;;;;41.90;31.10;;;9.00;70.20;;;;;;4967723;28;20713;-76
2022/03/11 09:15:59;;;;;;;77.03;34.30;;;9.20;69.50;;;;;;4965630;28;20910;-75
2022/03/11 09:18:27;;;;;;;100.13;35.93;;;9.10;69.10;;;;;;4968063;28;20509;-75
2022/03/11 09:20:55;;;;;;;130.63;35.90;;;9.20;70.50;;;;;;4967029;28;20478;-73
2022/03/11 09:23:22;;;;;;;108.53;36.80;;;9.30;69.40;;;;;;4968149;28;20477;-75
2022/03/11 09:25:50;;;;;;;59.50;32.87;;;9.50;68.60;;;;;;4969091;28;20506;-74
2022/03/11 09:28:17;;;;;;;55.97;29.90;;;9.60;68.80;;;;;;4967617;28;21528;-73
2022/03/11 09:30:43;;;;;;;99.30;32.30;;;9.80;66.80;;;;;;4967282;28;20525;-74
2022/03/11 09:33:13;;;;;;;75.93;36.00;;;9.80;68.20;;;;;;4966691;28;20458;-73
2022/03/11 09:35:41;;;;;;;75.40;33.40;;;9.80;66.50;;;;;;4967916;28;21330;-73
2022/03/11 09:38:08;;;;;;;84.90;33.77;;;9.60;66.60;;;;;;4967949;28;21713;-74
2022/03/11 09:40:35;;;;;;;62.30;32.67;;;9.90;67.10;;;;;;4967608;28;20466;-72
2022/03/11 09:43:02;;;;;;;42.73;30.87;;;10.00;65.30;;;;;;4966612;28;20501;-75
2022/03/11 09:45:29;;;;;;;49.63;30.87;;;10.20;64.70;;;;;;4966885;28;21167;-75
2022/03/11 09:47:56;;;;;;;93.40;33.40;;;10.00;63.20;;;;;;4967385;28;20609;-74
2022/03/11 09:50:23;;;;;;;43.53;31.53;;;10.10;64.80;;;;;;4967520;28;20480;-72
2022/03/11 09:52:52;;;;;;;74.23;33.77;;;10.30;63.30;;;;;;4968601;28;20885;-74
2022/03/11 09:55:19;;;;;;;47.13;30.77;;;10.40;63.10;;;;;;4967829;28;20473;-74
2022/03/11 09:57:46;;;;;;;50.57;30.60;;;10.40;62.40;;;;;;4967192;28;20459;-75
2022/03/11 10:00:13;;;;;;;50.73;33.30;;;10.50;62.60;;;;;;4967621;28;21004;-74
2022/03/11 10:02:43;;;;;;;50.17;30.73;;;10.80;62.10;;;;;;4967867;28;20465;-74
2022/03/11 10:05:09;;;;;;;43.20;31.77;;;11.60;62.60;;;;;;4969280;28;20482;-73
2022/03/11 10:07:36;;;;;;;48.00;30.93;;;12.10;61.10;;;;;;4985865;28;20572;-73
2022/03/11 10:10:16;;;;;;;55.27;32.80;;;12.40;59.10;;;;;;4998996;28;20467;-74
2022/03/11 10:12:45;;;;;;;45.27;32.00;;;12.70;57.50;;;;;;4994450;28;20468;-74
2022/03/11 10:15:13;;;;;;;48.77;31.97;;;13.10;57.70;;;;;;4963719;28;20455;-73
2022/03/11 10:17:41;;;;;;;39.47;30.27;;;12.90;56.50;;;;;;4965717;28;20467;-76
2022/03/11 10:20:10;;;;;;;46.07;30.50;;;13.50;57.30;;;;;;4965765;28;20513;-75
2022/03/11 10:22:39;;;;;;;53.67;31.70;;;13.90;56.10;;;;;;4965584;28;20470;-75
2022/03/11 10:25:13;;;;;;;51.20;31.80;;;14.00;55.60;;;;;;4964591;28;21017;-74
2022/03/11 10:28:01;;;;;;;35.77;31.00;;;14.60;55.50;;;;;;4966145;28;20490;-75
2022/03/11 10:30:29;;;;;;;44.57;30.53;;;14.40;54.70;;;;;;4965543;28;20481;-74
2022/03/11 10:32:57;;;;;;;55.80;32.40;;;14.70;53.80;;;;;;4966204;28;20470;-74
2022/03/11 10:35:31;;;;;;;59.77;30.47;;;14.40;53.10;;;;;;4964189;28;20482;-73
2022/03/11 10:38:02;;;;;;;48.00;30.40;;;14.00;52.80;;;;;;4965974;28;20490;-74
2022/03/11 10:40:30;;;;;;;46.60;31.00;;;14.10;54.10;;;;;;4967555;28;20474;-74
2022/03/11 10:43:15;;;;;;;59.70;31.23;;;14.40;54.70;;;;;;4965225;28;20463;-74
2022/03/11 10:45:50;;;;;;;48.27;32.03;;;14.50;53.60;;;;;;4964168;28;20446;-75
2022/03/11 10:48:40;;;;;;;42.07;31.27;;;14.90;53.20;;;;;;4965064;28;20532;-74
2022/03/11 10:51:11;;;;;;;40.93;30.20;;;15.00;52.70;;;;;;4968252;28;21036;-74
2022/03/11 10:53:39;;;;;;;56.43;29.90;;;15.50;52.00;;;;;;4964771;28;20485;-75
2022/03/11 10:56:07;;;;;;;52.23;29.13;;;15.80;52.30;;;;;;4965656;28;20459;-75
2022/03/11 10:58:36;;;;;;;47.90;29.43;;;15.70;50.80;;;;;;4965884;28;20461;-75
2022/03/11 11:01:03;;;;;;;73.40;32.20;;;15.50;50.90;;;;;;4974479;28;20477;-75
2022/03/11 11:03:32;;;;;;;59.57;30.67;;;15.80;51.50;;;;;;4989519;28;20470;-74
2022/03/11 11:05:59;;;;;;;65.73;30.30;;;15.70;51.00;;;;;;4966436;28;20549;-73
2022/03/11 11:08:27;;;;;;;88.07;34.27;;;15.50;49.90;;;;;;4966322;28;20748;-75
2022/03/11 11:10:54;;;;;;;123.33;34.37;;;15.50;50.50;;;;;;4967852;28;20481;-74
2022/03/11 11:13:21;;;;;;;162.73;38.30;;;16.00;51.00;;;;;;4979625;28;20471;-73
2022/03/11 11:15:55;;;;;;;93.60;33.47;;;16.50;50.00;;;;;;4977917;28;21270;-75
2022/03/11 11:18:25;;;;;;;103.60;33.10;;;16.50;49.80;;;;;;4963033;28;20468;-76
2022/03/11 11:20:53;;;;;;;87.63;33.50;;;16.60;49.10;;;;;;4965136;28;20474;-74
2022/03/11 11:23:25;;;;;;;129.30;34.90;;;16.40;48.70;;;;;;4963915;28;20466;-75
2022/03/11 11:25:52;;;;;;;143.73;36.80;;;16.60;48.80;;;;;;4967627;28;20474;-76
2022/03/11 11:28:21;;;;;;;88.17;34.60;;;16.60;49.00;;;;;;4973873;28;20502;-74
2022/03/11 11:30:53;;;;;;;79.20;31.23;;;16.50;48.50;;;;;;4991393;28;20593;-75
2022/03/11 11:33:21;;;;;;;54.87;31.30;;;16.60;48.70;;;;;;4969843;28;20565;-73
2022/03/11 11:35:55;;;;;;;61.67;32.13;;;17.10;48.40;;;;;;4967468;28;20716;-76
2022/03/11 11:38:37;;;;;;;81.53;30.83;;;16.70;48.20;;;;;;4984967;28;20502;-74
2022/03/11 11:41:20;;;;;;;64.27;32.10;;;16.60;47.90;;;;;;5001536;28;20473;-74
2022/03/11 11:43:53;;;;;;;67.97;31.13;;;17.10;48.50;;;;;;4991306;28;20472;-74
2022/03/11 11:46:22;;;;;;;62.77;32.20;;;17.00;47.40;;;;;;4967400;28;20971;-74
2022/03/11 11:49:12;;;;;;;47.03;31.43;;;17.50;48.00;;;;;;4967909;28;20489;-74
2022/03/11 11:51:57;;;;;;;50.33;28.90;;;17.30;47.60;;;;;;4967466;28;20469;-74
2022/03/11 11:54:43;;;;;;;41.73;29.00;;;17.30;47.10;;;;;;4968095;28;20469;-74
2022/03/11 11:57:18;;;;;;;33.60;28.53;;;17.30;47.30;;;;;;4966590;28;20820;-75
2022/03/11 11:59:46;;;;;;;42.70;29.07;;;17.60;46.70;;;;;;4966785;28;20539;-74
2022/03/11 12:02:42;;;;;;;39.97;28.90;;;17.90;48.00;;;;;;4966996;28;20461;-75
2022/03/11 12:05:52;;;;;;;45.57;28.60;;;18.70;46.40;;;;;;4928936;28;21204;-75
2022/03/11 12:08:48;;;;;;;31.80;27.20;;;18.10;46.50;;;;;;4965985;28;20590;-74
2022/03/11 12:11:42;;;;;;;32.20;29.17;;;18.60;46.00;;;;;;4966281;28;20473;-74
2022/03/11 12:14:09;;;;;;;32.80;29.60;;;19.10;46.00;;;;;;4965288;28;20461;-75
2022/03/11 12:17:05;;;;;;;32.67;29.17;;;19.70;45.50;;;;;;5006141;28;20963;-74
2022/03/11 12:19:44;;;;;;;38.43;29.70;;;19.50;44.70;;;;;;4993911;28;20480;-74
2022/03/11 12:22:29;;;;;;;33.00;29.80;;;19.50;44.40;;;;;;4978799;28;20720;-75
2022/03/11 12:25:01;;;;;;;31.10;28.20;;;19.50;44.90;;;;;;4973070;28;20462;-76
2022/03/11 12:27:56;;;;;;;34.03;30.80;;;20.10;45.10;;;;;;4993276;28;20474;-74
2022/03/11 12:30:23;;;;;;;30.97;28.07;;;20.40;44.40;;;;;;4995399;28;20497;-74
2022/03/11 12:32:52;;;;;;;31.83;28.90;;;20.10;44.50;;;;;;4971594;28;20973;-75
2022/03/11 12:35:21;;;;;;;37.87;28.43;;;19.50;44.10;;;;;;4963792;28;20458;-74
2022/03/11 12:37:48;;;;;;;33.40;29.90;;;19.80;44.80;;;;;;4966700;28;20501;-73
2022/03/11 12:40:15;;;;;;;37.07;29.90;;;20.10;44.60;;;;;;4966399;28;20471;-74